createdAt,value
2019-04-20T00:01:28.051Z,50.90
2019-04-20T00:03:55.625Z,50.62
2019-04-20T00:06:27.075Z,51.05
2019-04-20T00:09:04.957Z,50.97
2019-04-20T00:11:41.005Z,52.20
2019-04-20T00:14:10.329Z,50.71
2019-04-20T00:16:35.848Z,50.81
2019-04-20T00:19:07.697Z,49.57
2019-04-20T00:21:51.977Z,49.83
2019-04-20T00:24:26.884Z,50.29
2019-04-20T00:27:15.894Z,49.25
2019-04-20T00:29:46.376Z,49.87
2019-04-20T00:32:11.473Z,50.44
2019-04-20T00:34:36.459Z,49.16
2019-04-20T00:37:05.188Z,48.06
2019-04-20T00:39:38.287Z,48.19
2019-04-20T00:42:12.639Z,48.43
2019-04-20T00:44:45.477Z,48.81
2019-04-20T00:47:25.294Z,49.28
2019-04-20T00:49:58.658Z,49.66
2019-04-20T00:52:50.914Z,49.80
2019-04-20T00:54:52.285Z,49.27
2019-04-20T00:57:34.688Z,49.25
2019-04-20T01:00:16.428Z,49.34
2019-04-20T01:02:40.325Z,48.38
2019-04-20T01:05:20.206Z,48.67
2019-04-20T01:07:57.007Z,48.73
2019-04-20T01:10:30.319Z,49.04
2019-04-20T01:13:06.062Z,49.59
2019-04-20T01:15:40.665Z,50.54
2019-04-20T01:18:03.362Z,49.34
2019-04-20T01:20:34.186Z,50.68
2019-04-20T01:23:10.067Z,50.83
2019-04-20T01:25:40.914Z,49.39
2019-04-20T01:28:27.786Z,49.41
2019-04-20T01:30:55.093Z,49.72
2019-04-20T01:33:29.031Z,49.00
2019-04-20T01:36:03.543Z,49.61
2019-04-20T01:38:35.978Z,48.94
2019-04-20T01:40:53.010Z,48.92
2019-04-20T01:43:24.743Z,48.99
2019-04-20T01:46:03.309Z,49.36
2019-04-20T01:48:33.951Z,48.83
2019-04-20T01:51:07.355Z,48.43
2019-04-20T01:53:51.362Z,48.58
2019-04-20T01:56:24.378Z,48.55
2019-04-20T01:59:16.349Z,48.66
2019-04-20T02:02:03.196Z,48.31
2019-04-20T02:04:43.436Z,49.10
2019-04-20T02:07:12.001Z,49.05
2019-04-20T02:09:49.765Z,49.99
2019-04-20T02:12:21.898Z,49.85
2019-04-20T02:14:52.194Z,50.03
2019-04-20T02:17:29.845Z,49.61
2019-04-20T02:20:10.474Z,49.86
2019-04-20T02:22:45.259Z,51.09
2019-04-20T02:24:59.450Z,50.25
2019-04-20T02:27:40.637Z,50.08
2019-04-20T02:30:44.951Z,50.10
2019-04-20T02:33:34.759Z,50.12
2019-04-20T02:36:03.663Z,50.52
2019-04-20T02:41:28.337Z,51.28
2019-04-20T02:44:06.113Z,51.03
2019-04-20T02:46:24.674Z,50.92
2019-04-20T02:49:10.644Z,50.98
2019-04-20T02:51:37.106Z,49.51
2019-04-20T02:56:40.261Z,49.66
2019-04-20T02:59:42.263Z,49.75
2019-04-20T03:01:42.023Z,48.89
2019-04-20T03:03:58.100Z,49.01
2019-04-20T03:06:41.242Z,49.06
2019-04-20T03:09:19.887Z,49.13
2019-04-20T03:14:21.786Z,50.21
2019-04-20T03:16:56.725Z,51.05
2019-04-20T03:19:23.670Z,50.88
2019-04-20T03:22:09.245Z,50.73
2019-04-20T03:24:44.315Z,50.45
2019-04-20T03:27:07.109Z,50.85
2019-04-20T03:30:07.834Z,50.09
2019-04-20T03:35:22.522Z,50.49
2019-04-20T03:37:48.559Z,51.12
2019-04-20T03:40:12.792Z,50.56
2019-04-20T03:42:33.065Z,51.51
2019-04-20T03:45:09.725Z,51.74
2019-04-20T03:47:49.680Z,52.79
2019-04-20T03:50:35.563Z,53.02
2019-04-20T03:53:17.233Z,53.94
2019-04-20T03:55:51.334Z,54.39
2019-04-20T03:58:33.421Z,53.78
2019-04-20T04:01:32.872Z,52.86
2019-04-20T04:04:09.483Z,52.68
2019-04-20T04:06:33.524Z,52.75
2019-04-20T04:09:10.099Z,52.98
2019-04-20T04:11:43.547Z,52.86
2019-04-20T04:14:01.204Z,53.95
2019-04-20T04:16:37.440Z,55.12
2019-04-20T04:19:12.784Z,56.52
2019-04-20T04:21:56.049Z,56.59
2019-04-20T04:24:25.043Z,57.70
2019-04-20T04:26:58.898Z,58.39
2019-04-20T04:29:39.682Z,58.60
2019-04-20T04:32:25.558Z,60.16
2019-04-20T04:34:40.501Z,60.50
2019-04-20T04:37:19.059Z,60.50
2019-04-20T04:39:51.325Z,62.60
2019-04-20T04:42:32.343Z,62.10
2019-04-20T04:44:43.661Z,59.29
2019-04-20T04:47:08.369Z,61.74
2019-04-20T04:49:41.342Z,62.52
2019-04-20T04:52:15.741Z,64.74
2019-04-20T04:54:53.113Z,64.73
2019-04-20T04:57:15.919Z,65.72
2019-04-20T04:59:46.722Z,66.69
2019-04-20T05:02:17.934Z,67.91
2019-04-20T05:05:39.228Z,68.41
2019-04-20T05:07:58.510Z,69.26
2019-04-20T05:10:19.495Z,69.36
2019-04-20T05:12:53.112Z,69.45
2019-04-20T05:15:39.314Z,69.54
2019-04-20T05:18:16.183Z,70.90
2019-04-20T05:20:54.682Z,70.73
2019-04-20T05:23:28.006Z,72.33
2019-04-20T05:26:20.338Z,72.05
2019-04-20T05:28:46.106Z,71.99
2019-04-20T05:31:09.785Z,72.92
2019-04-20T05:34:02.360Z,73.45
2019-04-20T05:36:28.103Z,73.40
2019-04-20T05:39:16.119Z,73.62
2019-04-20T05:41:37.387Z,74.68
2019-04-20T05:44:44.262Z,74.42
2019-04-20T05:47:15.267Z,74.73
2019-04-20T05:49:40.336Z,74.22
2019-04-20T05:52:31.308Z,73.21
2019-04-20T05:54:50.835Z,73.23
2019-04-20T05:57:26.329Z,71.82
2019-04-20T06:00:02.181Z,69.73
2019-04-20T06:02:27.736Z,69.02
2019-04-20T06:05:11.390Z,68.63
2019-04-20T06:08:00.705Z,68.10
2019-04-20T06:10:52.274Z,69.20
2019-04-20T06:13:22.469Z,68.13
2019-04-20T06:16:03.959Z,69.36
2019-04-20T06:18:42.478Z,67.51
2019-04-20T06:21:32.333Z,66.15
2019-04-20T06:24:02.518Z,66.18
2019-04-20T06:26:51.908Z,60.70
2019-04-20T06:29:10.075Z,59.14
2019-04-20T06:31:45.889Z,58.24
2019-04-20T06:36:53.528Z,61.60
2019-04-20T06:39:48.877Z,61.73
2019-04-20T06:44:35.713Z,60.88
2019-04-20T06:47:24.702Z,60.50
2019-04-20T06:49:38.095Z,57.91
2019-04-20T06:55:02.852Z,47.79
2019-04-20T06:57:40.754Z,45.03
2019-04-20T07:00:15.811Z,46.00
2019-04-20T07:05:18.954Z,47.20
2019-04-20T07:07:56.378Z,45.58
2019-04-20T07:10:25.553Z,44.96
2019-04-20T07:12:49.317Z,43.99
2019-04-20T07:15:25.521Z,44.28
2019-04-20T07:18:09.444Z,43.10
2019-04-20T07:20:51.193Z,42.73
2019-04-20T07:23:31.212Z,41.53
2019-04-20T07:26:04.877Z,40.35
2019-04-20T07:28:43.606Z,41.52
2019-04-20T07:31:01.746Z,41.73
2019-04-20T07:33:39.356Z,41.98
2019-04-20T07:36:11.770Z,40.99
2019-04-20T07:38:46.578Z,41.13
2019-04-20T07:41:23.606Z,39.57
2019-04-20T07:43:59.047Z,40.66
2019-04-20T07:46:34.881Z,39.87
2019-04-20T07:48:54.290Z,38.78
2019-04-20T07:51:16.147Z,39.66
2019-04-20T07:53:59.507Z,39.42
2019-04-20T07:56:37.045Z,38.37
2019-04-20T07:58:52.398Z,39.28
2019-04-20T08:02:05.345Z,39.85
2019-04-20T08:04:32.402Z,37.84
2019-04-20T08:06:53.110Z,37.90
2019-04-20T08:09:28.858Z,37.47
2019-04-20T08:12:22.483Z,38.85
2019-04-20T08:14:55.382Z,37.68
2019-04-20T08:17:34.261Z,37.74
2019-04-20T08:19:50.918Z,37.46
2019-04-20T08:22:34.384Z,36.59
2019-04-20T08:24:55.311Z,37.79
2019-04-20T08:27:17.988Z,36.79
2019-04-20T08:30:21.557Z,36.03
2019-04-20T08:32:53.958Z,35.32
2019-04-20T08:35:31.897Z,35.46
2019-04-20T08:38:26.438Z,34.83
2019-04-20T08:40:43.587Z,36.59
2019-04-20T08:43:20.955Z,37.41
2019-04-20T08:45:48.761Z,35.34
2019-04-20T08:48:25.424Z,35.23
2019-04-20T08:50:51.862Z,32.89
2019-04-20T08:53:26.488Z,33.30
2019-04-20T08:55:50.102Z,33.67
2019-04-20T08:58:09.171Z,33.83
2019-04-20T09:00:48.687Z,33.14
2019-04-20T09:03:22.849Z,33.08
2019-04-20T09:05:57.767Z,33.23
2019-04-20T09:08:24.899Z,33.16
2019-04-20T09:11:10.260Z,32.96
2019-04-20T09:13:34.319Z,30.99
2019-04-20T09:15:58.019Z,31.70
2019-04-20T09:18:43.248Z,32.38
2019-04-20T09:21:13.668Z,30.30
2019-04-20T09:23:57.653Z,30.58
2019-04-20T09:26:32.451Z,30.71
2019-04-20T09:29:12.770Z,31.06
2019-04-20T09:31:39.247Z,31.28
2019-04-20T09:34:21.961Z,30.99
2019-04-20T09:37:22.441Z,31.02
2019-04-20T09:39:44.931Z,30.77
2019-04-20T09:42:31.542Z,29.59
2019-04-20T09:45:04.459Z,31.74
2019-04-20T09:47:41.936Z,32.43
2019-04-20T09:50:23.613Z,30.86
2019-04-20T09:52:57.036Z,30.54
2019-04-20T09:55:24.428Z,27.34
2019-04-20T09:58:01.071Z,28.11
2019-04-20T10:00:37.351Z,27.99
2019-04-20T10:02:52.621Z,28.22
2019-04-20T10:05:23.423Z,27.77
2019-04-20T10:07:58.645Z,28.08
2019-04-20T10:10:33.867Z,25.45
2019-04-20T10:13:00.534Z,28.40
2019-04-20T10:15:32.997Z,27.33
2019-04-20T10:18:03.880Z,25.18
2019-04-20T10:20:38.218Z,25.53
2019-04-20T10:23:07.062Z,25.29
2019-04-20T10:25:38.468Z,26.77
2019-04-20T10:28:09.585Z,23.44
2019-04-20T10:30:40.915Z,24.57
2019-04-20T10:33:13.349Z,24.84
2019-04-20T10:35:45.561Z,24.95
2019-04-20T10:38:32.121Z,24.83
2019-04-20T10:41:08.251Z,24.63
2019-04-20T10:43:33.426Z,25.62
2019-04-20T10:46:04.724Z,27.09
2019-04-20T10:48:40.234Z,24.16
2019-04-20T10:51:09.151Z,24.28
2019-04-20T10:53:40.425Z,24.41
2019-04-20T10:56:11.653Z,23.63
2019-04-20T10:58:43.382Z,23.37
2019-04-20T11:01:15.679Z,24.37
2019-04-20T11:03:46.898Z,23.53
2019-04-20T11:06:18.620Z,24.15
2019-04-20T11:08:50.758Z,25.11
2019-04-20T11:11:26.503Z,23.75
2019-04-20T11:13:55.339Z,23.99
2019-04-20T11:16:26.480Z,22.51
2019-04-20T11:18:57.786Z,22.85
2019-04-20T11:21:28.502Z,23.88
2019-04-20T11:24:00.385Z,23.45
2019-04-20T11:26:32.163Z,23.31
2019-04-20T11:29:06.418Z,23.29
2019-04-20T11:31:43.104Z,21.99
2019-04-20T11:34:10.388Z,22.86
2019-04-20T11:36:41.590Z,21.77
2019-04-20T11:39:14.579Z,24.78
2019-04-20T11:41:45.761Z,22.90
2019-04-20T11:44:17.815Z,22.05
2019-04-20T11:46:50.290Z,23.82
2019-04-20T11:49:21.634Z,23.26
2019-04-20T11:51:52.336Z,23.39
2019-04-20T11:54:24.343Z,22.59
2019-04-20T11:56:55.594Z,22.45
2019-04-20T11:59:27.410Z,21.64
2019-04-20T12:02:06.433Z,22.45
2019-04-20T12:04:54.356Z,22.73
2019-04-20T12:07:19.011Z,22.76
2019-04-20T12:09:51.489Z,21.50
2019-04-20T12:12:34.349Z,23.14
2019-04-20T12:14:56.698Z,21.93
2019-04-20T12:17:27.471Z,21.13
2019-04-20T12:19:59.780Z,21.93
2019-04-20T12:22:30.841Z,21.42
2019-04-20T12:25:02.569Z,21.25
2019-04-20T12:27:34.490Z,21.36
2019-04-20T12:30:06.235Z,20.69
2019-04-20T12:32:42.965Z,20.99
2019-04-20T12:35:09.968Z,23.15
2019-04-20T12:37:41.057Z,20.86
2019-04-20T12:40:12.245Z,21.79
2019-04-20T12:42:44.216Z,20.17
2019-04-20T12:45:15.700Z,20.75
2019-04-20T12:47:48.669Z,19.90
2019-04-20T12:50:19.681Z,20.22
2019-04-20T12:52:50.742Z,21.69
2019-04-20T12:55:22.815Z,21.02
2019-04-20T12:57:54.488Z,21.76
2019-04-20T13:00:41.359Z,20.55
2019-04-20T13:03:13.732Z,21.10
2019-04-20T13:05:45.878Z,20.53
2019-04-20T13:08:21.727Z,21.05
2019-04-20T13:11:06.936Z,20.69
2019-04-20T13:13:44.230Z,20.20
2019-04-20T13:16:28.126Z,21.10
2019-04-20T13:19:01.602Z,21.34
2019-04-20T13:21:32.497Z,23.01
2019-04-20T13:24:03.408Z,21.30
2019-04-20T13:26:35.168Z,20.65
2019-04-20T13:29:06.780Z,22.27
2019-04-20T13:31:37.984Z,21.41
2019-04-20T13:34:09.660Z,22.35
2019-04-20T13:36:41.900Z,21.96
2019-04-20T13:39:14.281Z,20.56
2019-04-20T13:41:58.809Z,20.04
2019-04-20T13:44:18.023Z,21.45
2019-04-20T13:46:49.244Z,20.48
2019-04-20T13:49:20.820Z,22.07
2019-04-20T13:51:52.828Z,20.65
2019-04-20T13:54:26.641Z,22.08
2019-04-20T13:56:57.517Z,20.71
2019-04-20T13:59:37.746Z,21.63
2019-04-20T14:02:33.100Z,21.57
2019-04-20T14:05:05.059Z,19.17
2019-04-20T14:07:37.575Z,19.93
2019-04-20T14:10:09.228Z,21.33
2019-04-20T14:12:53.344Z,22.75
2019-04-20T14:15:13.498Z,21.83
2019-04-20T14:17:44.476Z,21.42
2019-04-20T14:20:18.665Z,20.36
2019-04-20T14:22:49.175Z,22.42
2019-04-20T14:25:20.834Z,21.52
2019-04-20T14:27:52.898Z,22.29
2019-04-20T14:30:24.803Z,21.29
2019-04-20T14:32:56.804Z,21.83
2019-04-20T14:35:29.104Z,23.27
2019-04-20T14:38:00.121Z,21.42
2019-04-20T14:40:32.377Z,19.90
2019-04-20T14:43:03.562Z,19.67
2019-04-20T14:45:34.404Z,21.02
2019-04-20T14:48:05.775Z,20.82
2019-04-20T14:50:38.047Z,21.69
2019-04-20T14:53:11.937Z,21.72
2019-04-20T14:55:47.138Z,21.89
2019-04-20T14:58:42.181Z,22.47
2019-04-20T15:01:36.612Z,21.59
2019-04-20T15:04:17.761Z,21.20
2019-04-20T15:06:48.690Z,21.43
2019-04-20T15:09:26.705Z,22.07
2019-04-20T15:12:04.448Z,21.68
2019-04-20T15:14:44.778Z,21.25
2019-04-20T15:17:30.299Z,22.15
2019-04-20T15:20:30.424Z,23.60
2019-04-20T15:23:17.563Z,22.36
2019-04-20T15:25:50.650Z,22.57
2019-04-20T15:28:28.550Z,22.23
2019-04-20T15:31:06.397Z,22.18
2019-04-20T15:33:41.057Z,23.05
2019-04-20T15:36:17.987Z,23.35
2019-04-20T15:38:53.344Z,22.13
2019-04-20T15:41:29.308Z,22.35
2019-04-20T15:44:03.531Z,22.67
2019-04-20T15:46:38.263Z,23.37
2019-04-20T15:49:15.877Z,25.06
2019-04-20T15:51:49.959Z,23.44
2019-04-20T15:54:29.503Z,22.46
2019-04-20T15:57:12.744Z,24.28
2019-04-20T15:59:42.234Z,22.97
2019-04-20T16:02:29.708Z,22.93
2019-04-20T16:05:12.341Z,23.54
2019-04-20T16:07:54.496Z,21.48
2019-04-20T16:10:23.320Z,23.43
2019-04-20T16:13:11.833Z,23.96
2019-04-20T16:15:35.853Z,23.19
2019-04-20T16:18:10.240Z,22.39
2019-04-20T16:20:50.714Z,22.65
2019-04-20T16:23:21.060Z,20.90
2019-04-20T16:26:21.772Z,23.57
2019-04-20T16:28:57.631Z,24.48
2019-04-20T16:31:36.344Z,21.45
2019-04-20T16:34:13.735Z,22.68
2019-04-20T16:36:53.001Z,22.70
2019-04-20T16:39:28.267Z,23.57
2019-04-20T16:42:02.441Z,22.20
2019-04-20T16:44:38.894Z,23.51
2019-04-20T16:47:12.357Z,22.06
2019-04-20T16:49:46.941Z,23.08
2019-04-20T16:52:26.385Z,21.93
2019-04-20T16:55:02.163Z,23.23
2019-04-20T16:57:37.324Z,24.65
2019-04-20T17:00:15.642Z,24.29
2019-04-20T17:02:54.290Z,23.97
2019-04-20T17:05:33.236Z,25.52
2019-04-20T17:08:15.172Z,27.43
2019-04-20T17:10:51.692Z,28.84
2019-04-20T17:13:36.694Z,23.68
2019-04-20T17:16:15.653Z,27.01
2019-04-20T17:18:53.192Z,29.74
2019-04-20T17:21:30.665Z,25.99
2019-04-20T17:24:09.086Z,28.31
2019-04-20T17:26:53.101Z,25.96
2019-04-20T17:29:30.217Z,29.63
2019-04-20T17:32:09.813Z,30.48
2019-04-20T17:34:57.859Z,30.46
2019-04-20T17:37:16.659Z,31.07
2019-04-20T17:40:11.220Z,32.23
2019-04-20T17:42:50.796Z,32.61
2019-04-20T17:45:28.585Z,33.37
2019-04-20T17:48:14.616Z,33.95
2019-04-20T17:50:55.978Z,34.71
2019-04-20T17:53:24.026Z,36.28
2019-04-20T17:55:50.028Z,36.30
2019-04-20T17:58:27.960Z,38.34
2019-04-20T18:01:23.998Z,38.54
2019-04-20T18:04:10.777Z,39.45
2019-04-20T18:06:34.873Z,38.74
2019-04-20T18:09:05.341Z,40.73
2019-04-20T18:11:25.665Z,39.23
2019-04-20T18:14:04.262Z,40.27
2019-04-20T18:16:50.861Z,41.44
2019-04-20T18:19:21.735Z,41.62
2019-04-20T18:22:13.983Z,43.18
2019-04-20T18:25:08.236Z,42.92
2019-04-20T18:27:37.563Z,42.83
2019-04-20T18:30:07.097Z,43.73
2019-04-20T18:32:27.498Z,45.94
2019-04-20T18:35:04.756Z,46.90
2019-04-20T18:37:34.436Z,47.55
2019-04-20T18:40:11.384Z,47.80
2019-04-20T18:42:43.483Z,48.17
2019-04-20T18:45:28.408Z,48.17
2019-04-20T18:48:03.942Z,49.13
2019-04-20T18:50:24.533Z,49.19
2019-04-20T18:52:49.841Z,49.60
2019-04-20T18:55:30.192Z,49.47
2019-04-20T18:57:55.108Z,50.57
2019-04-20T19:00:31.909Z,51.31
2019-04-20T19:03:09.693Z,51.00
2019-04-20T19:05:31.672Z,51.75
2019-04-20T19:08:06.612Z,52.27
2019-04-20T19:10:39.619Z,52.89
2019-04-20T19:13:37.602Z,52.81
2019-04-20T19:16:32.551Z,53.40
2019-04-20T19:19:16.370Z,53.96
2019-04-20T19:21:35.290Z,54.09
2019-04-20T19:24:12.172Z,54.86
2019-04-20T19:26:44.967Z,54.95
2019-04-20T19:29:22.419Z,53.85
2019-04-20T19:32:06.034Z,54.22
2019-04-20T19:34:33.543Z,54.80
2019-04-20T19:37:05.049Z,55.78
2019-04-20T19:39:40.232Z,56.63
2019-04-20T19:42:08.597Z,56.05
2019-04-20T19:44:44.948Z,57.34
2019-04-20T19:47:21.343Z,56.44
2019-04-20T19:49:44.138Z,57.27
2019-04-20T19:52:36.501Z,57.07
2019-04-20T19:54:54.932Z,56.55
2019-04-20T19:57:32.011Z,56.74
2019-04-20T19:59:49.647Z,57.04
2019-04-20T20:02:18.055Z,57.08
2019-04-20T20:04:53.607Z,56.75
2019-04-20T20:07:29.884Z,56.53
2019-04-20T20:09:58.415Z,56.15
2019-04-20T20:12:27.450Z,56.70
2019-04-20T20:14:59.551Z,56.95
2019-04-20T20:17:48.107Z,57.24
2019-04-20T20:20:26.318Z,57.20
2019-04-20T20:22:41.162Z,57.17
2019-04-20T20:25:09.668Z,57.52
2019-04-20T20:27:49.201Z,58.53
2019-04-20T20:30:23.341Z,58.89
2019-04-20T20:33:07.046Z,58.34
2019-04-20T20:35:25.041Z,56.51
2019-04-20T20:37:56.968Z,55.87
2019-04-20T20:40:29.862Z,57.22
2019-04-20T20:43:07.441Z,53.98
2019-04-20T20:45:33.577Z,54.46
2019-04-20T20:48:15.817Z,54.53
2019-04-20T20:50:56.143Z,52.91
2019-04-20T20:53:16.335Z,51.57
2019-04-20T20:55:44.342Z,52.09
2019-04-20T20:58:18.114Z,52.73
2019-04-20T21:00:54.106Z,54.20
2019-04-20T21:03:24.720Z,54.76
2019-04-20T21:05:51.582Z,54.64
2019-04-20T21:08:23.903Z,54.88
2019-04-20T21:10:54.927Z,55.73
2019-04-20T21:13:34.520Z,54.03
2019-04-20T21:16:03.950Z,51.02
2019-04-20T21:18:50.452Z,48.94
2019-04-20T21:21:19.158Z,49.05
2019-04-20T21:23:48.091Z,48.53
2019-04-20T21:26:17.794Z,48.55
2019-04-20T21:28:43.921Z,50.30
2019-04-20T21:31:21.694Z,52.85
2019-04-20T21:33:47.400Z,54.95
2019-04-20T21:36:24.139Z,54.84
2019-04-20T21:38:51.830Z,50.16
2019-04-20T21:41:25.359Z,48.97
2019-04-20T21:43:56.046Z,48.02
2019-04-20T21:46:31.922Z,49.08
2019-04-20T21:49:11.940Z,49.43
2019-04-20T21:51:44.142Z,49.08
2019-04-20T21:54:05.561Z,49.42
2019-04-20T21:56:48.794Z,49.52
2019-04-20T21:59:18.882Z,50.46
2019-04-20T22:01:57.766Z,50.54
2019-04-20T22:04:16.705Z,50.11
2019-04-20T22:06:50.126Z,51.39
2019-04-20T22:09:25.084Z,51.67
2019-04-20T22:11:56.077Z,50.77
2019-04-20T22:14:31.563Z,50.96
2019-04-20T22:17:02.230Z,50.70
2019-04-20T22:19:41.941Z,50.73
2019-04-20T22:22:16.142Z,52.10
2019-04-20T22:24:50.541Z,52.42
2019-04-20T22:27:20.122Z,51.93
2019-04-20T22:29:44.041Z,52.85
2019-04-20T22:32:17.274Z,52.53
2019-04-20T22:34:57.149Z,51.69
2019-04-20T22:37:27.001Z,52.31
2019-04-20T22:39:57.690Z,52.77
2019-04-20T22:42:31.284Z,51.40
2019-04-20T22:45:05.270Z,51.34
2019-04-20T22:47:33.998Z,50.83
2019-04-20T22:50:21.973Z,51.59
2019-04-20T22:52:48.698Z,51.53
2019-04-20T22:55:38.995Z,49.13
2019-04-20T22:57:53.829Z,49.55
2019-04-20T23:00:31.249Z,48.47
2019-04-20T23:02:49.560Z,48.50
2019-04-20T23:05:22.795Z,47.92
2019-04-20T23:07:54.727Z,46.88
2019-04-20T23:10:34.034Z,47.34
2019-04-20T23:12:59.694Z,47.43
2019-04-20T23:15:32.267Z,47.33
2019-04-20T23:18:04.295Z,47.26
2019-04-20T23:20:38.459Z,46.21
2019-04-20T23:23:11.000Z,47.76
2019-04-20T23:25:40.960Z,47.16
2019-04-20T23:28:14.766Z,48.53
2019-04-20T23:30:45.784Z,46.86
2019-04-20T23:33:18.028Z,47.82
2019-04-20T23:35:54.586Z,48.13
2019-04-20T23:38:24.586Z,47.90
2019-04-20T23:40:55.603Z,49.10
2019-04-20T23:43:33.684Z,48.90
2019-04-20T23:46:26.506Z,48.93
2019-04-20T23:49:20.015Z,48.46
2019-04-20T23:52:05.486Z,48.44
2019-04-20T23:54:23.648Z,49.73
2019-04-20T23:56:51.177Z,49.80
2019-04-20T23:59:27.765Z,48.86
